Accueil
METAR-TAF:

METAR-TAF

Aéroports :

Woensdrecht, Pays-Bas

latitude: 51-27N, longitude: 004-20E, altitude: 20 m

Observation

Le bulletin a été fait il y a 16 minutes, à 17:25 UTC
Vent 11 kt de est/nord-est, variant entre nord/nord-est et est/sud-est
Température 4°C
Humidité 75%
Pression 1006 hPa
Visibilité 10 km ou plus
Ciel couvert à une hauteur de 3200 ft

METAR: EHWO 201725Z AUTO 07011KT 030V110 9999 OVC032 04/M00 Q1006 BLU

Heure: 18:41 (17:41 UTC)

Prévision

Le bulletin a été fait il y a 7 heures et 56 minutes, à 09:45 UTC
Prévision valable du 20 à 10 UTC au 20 à 22 UTC
Vent 14 kt de est avec des rafales jusqu'à 24 kt
Visibilité 10 km ou plus
Nuages fragmentés à une hauteur de 4000 ft
Evoluant progressivement
du 20 à 17 UTC au 20 à 20 UTC
Vent 12 kt de est

TAF: EHWO 200945Z 2010/2022 08014G24KT 9999 BKN040 BECMG 2017/2020 09012KT

Observations et prévisions météorologiques de plus de 4000 aéroports (messages METAR et TAF).

Les stations disponibles sont représentées par des disques jaunes et rouges sur la carte.

Passer la souris dessus pour voir le nom de la station.

Cliquer dessus pour voir les observations et prévisions météorologiques.

Pour changer de carte: cliquez sur les boutons verts avec une croix noire pour zoomer, sur le bouton vert avec un tiret pour effectuer un zoom arrière, ou sur les flèches vertes pour les cartes adjacentes.


METAR-TAF: